sensor_id;sensor_type;location;lat;lon;timestamp;P1;durP1;ratioP1;P2;durP2;ratioP2
19414;SDS011;9843;48.882;12.592;2023-03-01T00:01:00;23.87;;;20.17;;
19414;SDS011;9843;48.882;12.592;2023-03-01T00:03:27;25.90;;;20.33;;
19414;SDS011;9843;48.882;12.592;2023-03-01T00:05:54;28.77;;;18.57;;
19414;SDS011;9843;48.882;12.592;2023-03-01T00:08:21;27.57;;;19.27;;
19414;SDS011;9843;48.882;12.592;2023-03-01T00:10:49;27.93;;;20.10;;
19414;SDS011;9843;48.882;12.592;2023-03-01T00:13:16;29.53;;;20.90;;
19414;SDS011;9843;48.882;12.592;2023-03-01T00:15:43;25.23;;;19.43;;
19414;SDS011;9843;48.882;12.592;2023-03-01T00:18:10;20.70;;;18.57;;
19414;SDS011;9843;48.882;12.592;2023-03-01T00:20:37;27.77;;;19.10;;
19414;SDS011;9843;48.882;12.592;2023-03-01T00:23:04;29.40;;;20.80;;
19414;SDS011;9843;48.882;12.592;2023-03-01T00:25:31;27.77;;;20.83;;
19414;SDS011;9843;48.882;12.592;2023-03-01T00:28:00;27.97;;;18.13;;
19414;SDS011;9843;48.882;12.592;2023-03-01T00:30:27;27.87;;;22.03;;
19414;SDS011;9843;48.882;12.592;2023-03-01T00:32:54;26.87;;;19.67;;
19414;SDS011;9843;48.882;12.592;2023-03-01T00:35:21;29.93;;;20.53;;
19414;SDS011;9843;48.882;12.592;2023-03-01T00:37:48;30.60;;;20.57;;
19414;SDS011;9843;48.882;12.592;2023-03-01T00:40:22;28.57;;;21.33;;
19414;SDS011;9843;48.882;12.592;2023-03-01T00:42:49;28.90;;;20.93;;
19414;SDS011;9843;48.882;12.592;2023-03-01T00:45:18;30.70;;;24.63;;
19414;SDS011;9843;48.882;12.592;2023-03-01T00:47:45;28.63;;;23.83;;
19414;SDS011;9843;48.882;12.592;2023-03-01T00:50:12;30.30;;;24.37;;
19414;SDS011;9843;48.882;12.592;2023-03-01T00:52:39;26.33;;;21.50;;
19414;SDS011;9843;48.882;12.592;2023-03-01T00:55:06;25.57;;;21.60;;
19414;SDS011;9843;48.882;12.592;2023-03-01T00:57:33;34.00;;;22.40;;
19414;SDS011;9843;48.882;12.592;2023-03-01T01:00:01;35.83;;;23.43;;
19414;SDS011;9843;48.882;12.592;2023-03-01T01:02:31;25.47;;;19.47;;
19414;SDS011;9843;48.882;12.592;2023-03-01T01:04:59;27.40;;;19.43;;
19414;SDS011;9843;48.882;12.592;2023-03-01T01:07:26;24.83;;;19.53;;
19414;SDS011;9843;48.882;12.592;2023-03-01T01:09:53;26.80;;;20.30;;
19414;SDS011;9843;48.882;12.592;2023-03-01T01:12:20;24.43;;;18.77;;
19414;SDS011;9843;48.882;12.592;2023-03-01T01:14:47;34.37;;;23.70;;
19414;SDS011;9843;48.882;12.592;2023-03-01T01:17:14;29.33;;;22.60;;
19414;SDS011;9843;48.882;12.592;2023-03-01T01:19:43;34.50;;;24.70;;
19414;SDS011;9843;48.882;12.592;2023-03-01T01:22:10;29.13;;;21.27;;
19414;SDS011;9843;48.882;12.592;2023-03-01T01:24:37;29.23;;;22.67;;
19414;SDS011;9843;48.882;12.592;2023-03-01T01:27:04;30.27;;;22.40;;
19414;SDS011;9843;48.882;12.592;2023-03-01T01:29:32;29.67;;;22.80;;
19414;SDS011;9843;48.882;12.592;2023-03-01T01:31:59;30.20;;;21.73;;
19414;SDS011;9843;48.882;12.592;2023-03-01T01:34:26;29.37;;;20.93;;
19414;SDS011;9843;48.882;12.592;2023-03-01T01:36:54;37.37;;;22.93;;
19414;SDS011;9843;48.882;12.592;2023-03-01T01:39:22;33.80;;;23.90;;
19414;SDS011;9843;48.882;12.592;2023-03-01T01:41:49;37.37;;;24.00;;
19414;SDS011;9843;48.882;12.592;2023-03-01T01:44:17;26.37;;;20.40;;
19414;SDS011;9843;48.882;12.592;2023-03-01T01:46:46;35.70;;;24.57;;
19414;SDS011;9843;48.882;12.592;2023-03-01T01:49:19;32.13;;;22.23;;
19414;SDS011;9843;48.882;12.592;2023-03-01T01:51:48;31.60;;;23.63;;
19414;SDS011;9843;48.882;12.592;2023-03-01T01:54:18;36.27;;;24.90;;
19414;SDS011;9843;48.882;12.592;2023-03-01T01:56:47;34.13;;;24.30;;
19414;SDS011;9843;48.882;12.592;2023-03-01T01:59:17;38.30;;;26.63;;
19414;SDS011;9843;48.882;12.592;2023-03-01T02:01:44;35.53;;;25.17;;
19414;SDS011;9843;48.882;12.592;2023-03-01T02:04:11;36.37;;;24.67;;
19414;SDS011;9843;48.882;12.592;2023-03-01T02:06:39;36.60;;;25.87;;
19414;SDS011;9843;48.882;12.592;2023-03-01T02:09:11;28.57;;;22.83;;
19414;SDS011;9843;48.882;12.592;2023-03-01T02:11:40;34.03;;;23.77;;
19414;SDS011;9843;48.882;12.592;2023-03-01T02:14:08;31.80;;;22.63;;
19414;SDS011;9843;48.882;12.592;2023-03-01T02:16:35;31.47;;;22.03;;
19414;SDS011;9843;48.882;12.592;2023-03-01T02:19:02;38.43;;;24.73;;
19414;SDS011;9843;48.882;12.592;2023-03-01T02:21:34;33.67;;;23.67;;
19414;SDS011;9843;48.882;12.592;2023-03-01T02:24:05;41.53;;;27.03;;
19414;SDS011;9843;48.882;12.592;2023-03-01T02:26:35;37.93;;;24.53;;
19414;SDS011;9843;48.882;12.592;2023-03-01T02:29:05;41.73;;;27.43;;
19414;SDS011;9843;48.882;12.592;2023-03-01T02:31:32;36.30;;;27.83;;
19414;SDS011;9843;48.882;12.592;2023-03-01T02:34:09;33.23;;;23.03;;
19414;SDS011;9843;48.882;12.592;2023-03-01T02:36:39;32.60;;;23.37;;
19414;SDS011;9843;48.882;12.592;2023-03-01T02:39:07;38.27;;;24.57;;
19414;SDS011;9843;48.882;12.592;2023-03-01T02:41:42;37.43;;;25.43;;
19414;SDS011;9843;48.882;12.592;2023-03-01T02:44:11;35.03;;;25.27;;
19414;SDS011;9843;48.882;12.592;2023-03-01T02:46:42;40.37;;;25.07;;
19414;SDS011;9843;48.882;12.592;2023-03-01T02:49:17;33.50;;;23.13;;
19414;SDS011;9843;48.882;12.592;2023-03-01T02:51:46;42.97;;;26.00;;
19414;SDS011;9843;48.882;12.592;2023-03-01T02:54:16;28.80;;;22.30;;
19414;SDS011;9843;48.882;12.592;2023-03-01T02:56:44;40.53;;;25.97;;
19414;SDS011;9843;48.882;12.592;2023-03-01T02:59:15;33.70;;;25.07;;
19414;SDS011;9843;48.882;12.592;2023-03-01T03:01:43;34.83;;;25.77;;
19414;SDS011;9843;48.882;12.592;2023-03-01T03:04:12;32.07;;;23.50;;
19414;SDS011;9843;48.882;12.592;2023-03-01T03:06:42;31.50;;;23.03;;
19414;SDS011;9843;48.882;12.592;2023-03-01T03:09:09;33.63;;;24.80;;
19414;SDS011;9843;48.882;12.592;2023-03-01T03:11:37;38.30;;;24.73;;
19414;SDS011;9843;48.882;12.592;2023-03-01T03:14:04;30.53;;;22.53;;
19414;SDS011;9843;48.882;12.592;2023-03-01T03:16:40;29.83;;;25.20;;
19414;SDS011;9843;48.882;12.592;2023-03-01T03:19:07;32.30;;;24.67;;
19414;SDS011;9843;48.882;12.592;2023-03-01T03:21:34;33.87;;;24.10;;
19414;SDS011;9843;48.882;12.592;2023-03-01T03:24:02;35.37;;;25.17;;
19414;SDS011;9843;48.882;12.592;2023-03-01T03:26:29;31.53;;;23.30;;
19414;SDS011;9843;48.882;12.592;2023-03-01T03:28:56;32.23;;;23.33;;
19414;SDS011;9843;48.882;12.592;2023-03-01T03:31:23;35.27;;;23.63;;
19414;SDS011;9843;48.882;12.592;2023-03-01T03:33:52;35.00;;;24.63;;
19414;SDS011;9843;48.882;12.592;2023-03-01T03:36:20;40.17;;;25.90;;
19414;SDS011;9843;48.882;12.592;2023-03-01T03:38:47;33.23;;;24.53;;
19414;SDS011;9843;48.882;12.592;2023-03-01T03:41:15;36.40;;;25.30;;
19414;SDS011;9843;48.882;12.592;2023-03-01T03:43:42;31.87;;;24.17;;
19414;SDS011;9843;48.882;12.592;2023-03-01T03:46:10;38.27;;;25.63;;
19414;SDS011;9843;48.882;12.592;2023-03-01T03:48:38;31.90;;;24.53;;
19414;SDS011;9843;48.882;12.592;2023-03-01T03:51:09;34.17;;;26.73;;
19414;SDS011;9843;48.882;12.592;2023-03-01T03:53:36;34.47;;;24.13;;
19414;SDS011;9843;48.882;12.592;2023-03-01T03:56:04;36.07;;;24.10;;
19414;SDS011;9843;48.882;12.592;2023-03-01T03:58:31;33.30;;;24.80;;
19414;SDS011;9843;48.882;12.592;2023-03-01T04:00:58;34.87;;;24.73;;
19414;SDS011;9843;48.882;12.592;2023-03-01T04:03:27;33.23;;;25.53;;
19414;SDS011;9843;48.882;12.592;2023-03-01T04:05:56;35.27;;;25.13;;
19414;SDS011;9843;48.882;12.592;2023-03-01T04:08:25;38.23;;;26.57;;
19414;SDS011;9843;48.882;12.592;2023-03-01T04:10:53;36.77;;;24.57;;
19414;SDS011;9843;48.882;12.592;2023-03-01T04:13:23;35.87;;;25.37;;
19414;SDS011;9843;48.882;12.592;2023-03-01T04:15:50;32.57;;;24.93;;
19414;SDS011;9843;48.882;12.592;2023-03-01T04:18:18;32.57;;;26.03;;
19414;SDS011;9843;48.882;12.592;2023-03-01T04:20:46;30.20;;;23.43;;
19414;SDS011;9843;48.882;12.592;2023-03-01T04:23:14;33.20;;;23.57;;
19414;SDS011;9843;48.882;12.592;2023-03-01T04:25:46;41.70;;;25.17;;
19414;SDS011;9843;48.882;12.592;2023-03-01T04:28:18;40.07;;;24.30;;
19414;SDS011;9843;48.882;12.592;2023-03-01T04:30:45;43.43;;;26.57;;
19414;SDS011;9843;48.882;12.592;2023-03-01T04:33:13;31.53;;;24.10;;
19414;SDS011;9843;48.882;12.592;2023-03-01T04:35:40;36.07;;;23.37;;
19414;SDS011;9843;48.882;12.592;2023-03-01T04:38:08;41.07;;;27.43;;
19414;SDS011;9843;48.882;12.592;2023-03-01T04:40:35;41.03;;;27.93;;
19414;SDS011;9843;48.882;12.592;2023-03-01T04:43:04;33.50;;;23.60;;
19414;SDS011;9843;48.882;12.592;2023-03-01T04:45:31;35.97;;;25.33;;
19414;SDS011;9843;48.882;12.592;2023-03-01T04:48:00;35.37;;;23.60;;
19414;SDS011;9843;48.882;12.592;2023-03-01T04:50:27;39.60;;;26.40;;
19414;SDS011;9843;48.882;12.592;2023-03-01T04:52:55;41.67;;;27.03;;
19414;SDS011;9843;48.882;12.592;2023-03-01T04:55:23;37.03;;;24.30;;
19414;SDS011;9843;48.882;12.592;2023-03-01T04:57:50;36.93;;;27.60;;
19414;SDS011;9843;48.882;12.592;2023-03-01T05:00:20;32.63;;;23.83;;
19414;SDS011;9843;48.882;12.592;2023-03-01T05:02:48;34.33;;;24.00;;
19414;SDS011;9843;48.882;12.592;2023-03-01T05:05:18;33.20;;;24.73;;
19414;SDS011;9843;48.882;12.592;2023-03-01T05:07:45;30.50;;;24.73;;
19414;SDS011;9843;48.882;12.592;2023-03-01T05:10:12;36.80;;;26.40;;
19414;SDS011;9843;48.882;12.592;2023-03-01T05:12:39;30.17;;;22.57;;
19414;SDS011;9843;48.882;12.592;2023-03-01T05:15:07;34.30;;;25.27;;
19414;SDS011;9843;48.882;12.592;2023-03-01T05:17:35;38.40;;;26.03;;
19414;SDS011;9843;48.882;12.592;2023-03-01T05:20:02;35.37;;;23.23;;
19414;SDS011;9843;48.882;12.592;2023-03-01T05:22:33;35.90;;;25.53;;
19414;SDS011;9843;48.882;12.592;2023-03-01T05:25:00;45.27;;;27.10;;
19414;SDS011;9843;48.882;12.592;2023-03-01T05:27:27;35.80;;;23.73;;
19414;SDS011;9843;48.882;12.592;2023-03-01T05:29:54;40.77;;;28.47;;
19414;SDS011;9843;48.882;12.592;2023-03-01T05:32:21;36.73;;;26.10;;
19414;SDS011;9843;48.882;12.592;2023-03-01T05:34:50;36.00;;;24.90;;
19414;SDS011;9843;48.882;12.592;2023-03-01T05:37:17;32.93;;;25.07;;
19414;SDS011;9843;48.882;12.592;2023-03-01T05:39:44;36.47;;;25.47;;
19414;SDS011;9843;48.882;12.592;2023-03-01T05:42:11;44.07;;;26.57;;
19414;SDS011;9843;48.882;12.592;2023-03-01T05:44:39;29.47;;;21.57;;
19414;SDS011;9843;48.882;12.592;2023-03-01T05:47:06;36.60;;;24.87;;
19414;SDS011;9843;48.882;12.592;2023-03-01T05:49:33;35.20;;;25.37;;
19414;SDS011;9843;48.882;12.592;2023-03-01T05:52:01;36.93;;;26.33;;
19414;SDS011;9843;48.882;12.592;2023-03-01T05:54:28;34.60;;;26.77;;
19414;SDS011;9843;48.882;12.592;2023-03-01T05:56:55;43.67;;;28.03;;
19414;SDS011;9843;48.882;12.592;2023-03-01T05:59:22;35.30;;;25.10;;
19414;SDS011;9843;48.882;12.592;2023-03-01T06:01:50;32.80;;;25.57;;
19414;SDS011;9843;48.882;12.592;2023-03-01T06:04:17;40.37;;;28.67;;
19414;SDS011;9843;48.882;12.592;2023-03-01T06:06:44;49.53;;;28.93;;
19414;SDS011;9843;48.882;12.592;2023-03-01T06:09:12;35.00;;;24.77;;
19414;SDS011;9843;48.882;12.592;2023-03-01T06:11:39;37.83;;;26.73;;
19414;SDS011;9843;48.882;12.592;2023-03-01T06:14:07;40.47;;;28.17;;
19414;SDS011;9843;48.882;12.592;2023-03-01T06:16:35;38.50;;;24.50;;
19414;SDS011;9843;48.882;12.592;2023-03-01T06:19:02;36.97;;;24.80;;
19414;SDS011;9843;48.882;12.592;2023-03-01T06:21:29;37.93;;;27.73;;
19414;SDS011;9843;48.882;12.592;2023-03-01T06:23:56;47.10;;;27.20;;
19414;SDS011;9843;48.882;12.592;2023-03-01T06:26:25;34.10;;;26.53;;
19414;SDS011;9843;48.882;12.592;2023-03-01T06:28:52;31.27;;;24.17;;
19414;SDS011;9843;48.882;12.592;2023-03-01T06:31:19;38.13;;;25.63;;
19414;SDS011;9843;48.882;12.592;2023-03-01T06:33:46;29.17;;;24.13;;
19414;SDS011;9843;48.882;12.592;2023-03-01T06:36:13;37.03;;;23.07;;
19414;SDS011;9843;48.882;12.592;2023-03-01T06:38:43;35.87;;;22.13;;
19414;SDS011;9843;48.882;12.592;2023-03-01T06:41:10;39.43;;;23.60;;
19414;SDS011;9843;48.882;12.592;2023-03-01T06:43:39;30.43;;;23.07;;
19414;SDS011;9843;48.882;12.592;2023-03-01T06:46:06;30.57;;;21.73;;
19414;SDS011;9843;48.882;12.592;2023-03-01T06:48:33;36.57;;;25.63;;
19414;SDS011;9843;48.882;12.592;2023-03-01T06:51:00;29.83;;;22.90;;
19414;SDS011;9843;48.882;12.592;2023-03-01T06:53:28;28.70;;;20.17;;
19414;SDS011;9843;48.882;12.592;2023-03-01T06:55:55;29.80;;;19.43;;
19414;SDS011;9843;48.882;12.592;2023-03-01T06:58:23;25.90;;;19.57;;
19414;SDS011;9843;48.882;12.592;2023-03-01T07:00:51;28.93;;;19.93;;
19414;SDS011;9843;48.882;12.592;2023-03-01T07:03:18;28.60;;;19.23;;
19414;SDS011;9843;48.882;12.592;2023-03-01T07:05:47;23.90;;;19.47;;
19414;SDS011;9843;48.882;12.592;2023-03-01T07:08:16;22.63;;;17.27;;
19414;SDS011;9843;48.882;12.592;2023-03-01T07:10:43;26.47;;;18.23;;
19414;SDS011;9843;48.882;12.592;2023-03-01T07:13:10;22.10;;;17.33;;
19414;SDS011;9843;48.882;12.592;2023-03-01T07:15:39;20.60;;;16.67;;
19414;SDS011;9843;48.882;12.592;2023-03-01T07:18:08;24.10;;;17.97;;
19414;SDS011;9843;48.882;12.592;2023-03-01T07:20:35;20.60;;;16.40;;
19414;SDS011;9843;48.882;12.592;2023-03-01T07:23:02;31.13;;;19.70;;
19414;SDS011;9843;48.882;12.592;2023-03-01T07:25:29;24.13;;;17.60;;
19414;SDS011;9843;48.882;12.592;2023-03-01T07:27:57;20.53;;;17.23;;
19414;SDS011;9843;48.882;12.592;2023-03-01T07:30:24;25.50;;;17.47;;
19414;SDS011;9843;48.882;12.592;2023-03-01T07:32:53;23.77;;;16.63;;
19414;SDS011;9843;48.882;12.592;2023-03-01T07:35:21;26.77;;;16.33;;
19414;SDS011;9843;48.882;12.592;2023-03-01T07:37:48;24.13;;;16.87;;
19414;SDS011;9843;48.882;12.592;2023-03-01T07:40:16;25.27;;;15.70;;
19414;SDS011;9843;48.882;12.592;2023-03-01T07:42:43;25.80;;;16.47;;
19414;SDS011;9843;48.882;12.592;2023-03-01T07:45:10;24.63;;;16.23;;
19414;SDS011;9843;48.882;12.592;2023-03-01T07:47:38;30.20;;;19.77;;
19414;SDS011;9843;48.882;12.592;2023-03-01T07:50:05;26.27;;;17.43;;
19414;SDS011;9843;48.882;12.592;2023-03-01T07:52:34;23.70;;;16.00;;
19414;SDS011;9843;48.882;12.592;2023-03-01T07:55:01;27.70;;;18.37;;
19414;SDS011;9843;48.882;12.592;2023-03-01T07:57:28;26.57;;;17.77;;
19414;SDS011;9843;48.882;12.592;2023-03-01T07:59:55;19.00;;;15.40;;
19414;SDS011;9843;48.882;12.592;2023-03-01T08:02:22;23.97;;;15.73;;
19414;SDS011;9843;48.882;12.592;2023-03-01T08:04:49;23.37;;;18.93;;
19414;SDS011;9843;48.882;12.592;2023-03-01T08:07:16;20.63;;;16.27;;
19414;SDS011;9843;48.882;12.592;2023-03-01T08:09:44;23.13;;;18.80;;
19414;SDS011;9843;48.882;12.592;2023-03-01T08:12:11;19.97;;;16.90;;
19414;SDS011;9843;48.882;12.592;2023-03-01T08:14:38;21.17;;;15.90;;
19414;SDS011;9843;48.882;12.592;2023-03-01T08:17:05;25.10;;;17.07;;
19414;SDS011;9843;48.882;12.592;2023-03-01T08:19:32;21.27;;;16.43;;
19414;SDS011;9843;48.882;12.592;2023-03-01T08:22:00;24.27;;;17.13;;
19414;SDS011;9843;48.882;12.592;2023-03-01T08:24:28;24.00;;;16.27;;
19414;SDS011;9843;48.882;12.592;2023-03-01T08:26:56;20.37;;;14.90;;
19414;SDS011;9843;48.882;12.592;2023-03-01T08:29:23;20.27;;;16.80;;
19414;SDS011;9843;48.882;12.592;2023-03-01T08:31:50;20.90;;;15.07;;
19414;SDS011;9843;48.882;12.592;2023-03-01T08:34:18;26.97;;;16.77;;
19414;SDS011;9843;48.882;12.592;2023-03-01T08:36:45;23.80;;;16.00;;
19414;SDS011;9843;48.882;12.592;2023-03-01T08:39:13;22.70;;;14.40;;
19414;SDS011;9843;48.882;12.592;2023-03-01T08:41:40;16.20;;;12.00;;
19414;SDS011;9843;48.882;12.592;2023-03-01T08:44:09;20.73;;;14.80;;
19414;SDS011;9843;48.882;12.592;2023-03-01T08:46:37;23.67;;;14.00;;
19414;SDS011;9843;48.882;12.592;2023-03-01T08:49:05;16.37;;;13.87;;
19414;SDS011;9843;48.882;12.592;2023-03-01T08:51:32;17.23;;;13.53;;
19414;SDS011;9843;48.882;12.592;2023-03-01T08:54:01;16.33;;;11.73;;
19414;SDS011;9843;48.882;12.592;2023-03-01T08:56:28;34.80;;;18.17;;
19414;SDS011;9843;48.882;12.592;2023-03-01T08:58:55;24.10;;;18.87;;
19414;SDS011;9843;48.882;12.592;2023-03-01T09:01:24;18.43;;;15.20;;
19414;SDS011;9843;48.882;12.592;2023-03-01T09:03:51;20.53;;;14.97;;
19414;SDS011;9843;48.882;12.592;2023-03-01T09:06:18;21.83;;;13.70;;
19414;SDS011;9843;48.882;12.592;2023-03-01T09:08:46;17.97;;;14.93;;
19414;SDS011;9843;48.882;12.592;2023-03-01T09:11:14;18.43;;;12.00;;
19414;SDS011;9843;48.882;12.592;2023-03-01T09:13:41;17.97;;;14.07;;
19414;SDS011;9843;48.882;12.592;2023-03-01T09:16:11;20.80;;;14.67;;
19414;SDS011;9843;48.882;12.592;2023-03-01T09:18:39;15.50;;;12.13;;
19414;SDS011;9843;48.882;12.592;2023-03-01T09:21:07;18.77;;;13.13;;
19414;SDS011;9843;48.882;12.592;2023-03-01T09:23:35;20.67;;;14.30;;
19414;SDS011;9843;48.882;12.592;2023-03-01T09:26:04;13.37;;;10.17;;
19414;SDS011;9843;48.882;12.592;2023-03-01T09:28:31;19.50;;;13.80;;
19414;SDS011;9843;48.882;12.592;2023-03-01T09:30:58;17.57;;;12.17;;
19414;SDS011;9843;48.882;12.592;2023-03-01T09:33:25;12.53;;;10.33;;
19414;SDS011;9843;48.882;12.592;2023-03-01T09:35:57;17.77;;;12.03;;
19414;SDS011;9843;48.882;12.592;2023-03-01T09:38:24;25.63;;;14.73;;
19414;SDS011;9843;48.882;12.592;2023-03-01T09:40:51;18.23;;;11.63;;
19414;SDS011;9843;48.882;12.592;2023-03-01T09:43:20;13.30;;;11.33;;
19414;SDS011;9843;48.882;12.592;2023-03-01T09:45:48;18.23;;;12.97;;
19414;SDS011;9843;48.882;12.592;2023-03-01T09:48:18;15.40;;;11.53;;
19414;SDS011;9843;48.882;12.592;2023-03-01T09:50:47;13.97;;;10.90;;
19414;SDS011;9843;48.882;12.592;2023-03-01T09:53:16;16.90;;;13.87;;
19414;SDS011;9843;48.882;12.592;2023-03-01T09:55:45;18.20;;;10.47;;
19414;SDS011;9843;48.882;12.592;2023-03-01T09:58:25;17.17;;;10.40;;
19414;SDS011;9843;48.882;12.592;2023-03-01T10:00:56;11.43;;;10.07;;
19414;SDS011;9843;48.882;12.592;2023-03-01T10:03:25;13.63;;;11.37;;
19414;SDS011;9843;48.882;12.592;2023-03-01T10:05:56;19.90;;;11.53;;
19414;SDS011;9843;48.882;12.592;2023-03-01T10:08:28;20.23;;;13.95;;
19414;SDS011;9843;48.882;12.592;2023-03-01T10:10:58;13.57;;;9.77;;
19414;SDS011;9843;48.882;12.592;2023-03-01T10:13:27;15.18;;;11.65;;
19414;SDS011;9843;48.882;12.592;2023-03-01T10:15:56;11.60;;;7.00;;
19414;SDS011;9843;48.882;12.592;2023-03-01T10:18:24;12.77;;;9.70;;
19414;SDS011;9843;48.882;12.592;2023-03-01T10:20:53;12.95;;;9.10;;
19414;SDS011;9843;48.882;12.592;2023-03-01T10:23:22;11.82;;;8.55;;
19414;SDS011;9843;48.882;12.592;2023-03-01T10:25:56;9.35;;;8.50;;
19414;SDS011;9843;48.882;12.592;2023-03-01T10:28:31;16.48;;;10.35;;
19414;SDS011;9843;48.882;12.592;2023-03-01T10:31:03;10.40;;;8.13;;
19414;SDS011;9843;48.882;12.592;2023-03-01T10:33:31;10.20;;;8.52;;
19414;SDS011;9843;48.882;12.592;2023-03-01T10:35:59;11.85;;;9.45;;
19414;SDS011;9843;48.882;12.592;2023-03-01T10:38:26;10.07;;;9.00;;
19414;SDS011;9843;48.882;12.592;2023-03-01T10:40:58;10.43;;;8.63;;
19414;SDS011;9843;48.882;12.592;2023-03-01T10:43:27;12.73;;;8.85;;
19414;SDS011;9843;48.882;12.592;2023-03-01T10:45:54;10.27;;;8.00;;
19414;SDS011;9843;48.882;12.592;2023-03-01T10:48:22;14.52;;;8.95;;
19414;SDS011;9843;48.882;12.592;2023-03-01T10:51:04;12.57;;;8.82;;
19414;SDS011;9843;48.882;12.592;2023-03-01T10:53:32;14.38;;;10.90;;
19414;SDS011;9843;48.882;12.592;2023-03-01T10:56:02;11.48;;;8.90;;
19414;SDS011;9843;48.882;12.592;2023-03-01T10:58:30;14.90;;;11.00;;
19414;SDS011;9843;48.882;12.592;2023-03-01T11:00:58;19.55;;;11.60;;
19414;SDS011;9843;48.882;12.592;2023-03-01T11:03:26;12.63;;;10.68;;
19414;SDS011;9843;48.882;12.592;2023-03-01T11:05:58;11.25;;;8.75;;
19414;SDS011;9843;48.882;12.592;2023-03-01T11:11:20;13.55;;;10.15;;
19414;SDS011;9843;48.882;12.592;2023-03-01T11:13:52;9.85;;;8.07;;
19414;SDS011;9843;48.882;12.592;2023-03-01T11:16:22;12.10;;;9.65;;
19414;SDS011;9843;48.882;12.592;2023-03-01T11:18:55;15.15;;;10.27;;
19414;SDS011;9843;48.882;12.592;2023-03-01T11:21:23;12.07;;;9.93;;
19414;SDS011;9843;48.882;12.592;2023-03-01T11:23:51;12.90;;;9.85;;
19414;SDS011;9843;48.882;12.592;2023-03-01T11:26:19;12.98;;;10.63;;
19414;SDS011;9843;48.882;12.592;2023-03-01T11:28:49;10.50;;;8.48;;
19414;SDS011;9843;48.882;12.592;2023-03-01T11:31:17;13.35;;;9.48;;
19414;SDS011;9843;48.882;12.592;2023-03-01T11:33:46;11.93;;;9.68;;
19414;SDS011;9843;48.882;12.592;2023-03-01T11:36:16;12.43;;;8.88;;
19414;SDS011;9843;48.882;12.592;2023-03-01T11:38:43;11.07;;;8.98;;
19414;SDS011;9843;48.882;12.592;2023-03-01T11:41:12;13.55;;;10.25;;
19414;SDS011;9843;48.882;12.592;2023-03-01T11:43:45;13.55;;;10.82;;
19414;SDS011;9843;48.882;12.592;2023-03-01T11:48:58;13.77;;;10.13;;
19414;SDS011;9843;48.882;12.592;2023-03-01T11:51:35;12.55;;;9.13;;
19414;SDS011;9843;48.882;12.592;2023-03-01T11:54:07;10.60;;;9.50;;
19414;SDS011;9843;48.882;12.592;2023-03-01T11:56:38;12.25;;;10.02;;
19414;SDS011;9843;48.882;12.592;2023-03-01T11:59:16;12.75;;;9.25;;
19414;SDS011;9843;48.882;12.592;2023-03-01T12:01:49;12.57;;;10.88;;
19414;SDS011;9843;48.882;12.592;2023-03-01T12:04:30;16.63;;;13.18;;
19414;SDS011;9843;48.882;12.592;2023-03-01T12:06:59;13.45;;;10.23;;
19414;SDS011;9843;48.882;12.592;2023-03-01T12:09:36;13.18;;;11.93;;
19414;SDS011;9843;48.882;12.592;2023-03-01T12:12:09;13.40;;;11.45;;
19414;SDS011;9843;48.882;12.592;2023-03-01T12:14:48;15.70;;;12.80;;
19414;SDS011;9843;48.882;12.592;2023-03-01T12:17:31;17.98;;;13.48;;
19414;SDS011;9843;48.882;12.592;2023-03-01T12:20:19;16.60;;;12.45;;
19414;SDS011;9843;48.882;12.592;2023-03-01T12:22:55;18.30;;;10.95;;
19414;SDS011;9843;48.882;12.592;2023-03-01T12:25:27;14.45;;;12.38;;
19414;SDS011;9843;48.882;12.592;2023-03-01T12:30:42;12.30;;;10.30;;
19414;SDS011;9843;48.882;12.592;2023-03-01T12:33:15;15.32;;;12.68;;
19414;SDS011;9843;48.882;12.592;2023-03-01T12:35:47;17.73;;;12.90;;
19414;SDS011;9843;48.882;12.592;2023-03-01T12:38:20;18.17;;;12.95;;
19414;SDS011;9843;48.882;12.592;2023-03-01T12:43:51;14.80;;;11.68;;
19414;SDS011;9843;48.882;12.592;2023-03-01T12:46:27;14.38;;;11.50;;
19414;SDS011;9843;48.882;12.592;2023-03-01T12:48:59;14.60;;;12.15;;
19414;SDS011;9843;48.882;12.592;2023-03-01T12:51:30;14.63;;;11.50;;
19414;SDS011;9843;48.882;12.592;2023-03-01T12:53:58;17.70;;;14.10;;
19414;SDS011;9843;48.882;12.592;2023-03-01T12:56:27;16.75;;;12.93;;
19414;SDS011;9843;48.882;12.592;2023-03-01T12:58:57;18.52;;;14.48;;
19414;SDS011;9843;48.882;12.592;2023-03-01T13:01:33;20.27;;;15.27;;
19414;SDS011;9843;48.882;12.592;2023-03-01T13:04:05;14.55;;;12.68;;
19414;SDS011;9843;48.882;12.592;2023-03-01T13:06:38;14.80;;;10.57;;
19414;SDS011;9843;48.882;12.592;2023-03-01T13:09:10;18.58;;;13.80;;
19414;SDS011;9843;48.882;12.592;2023-03-01T13:11:40;15.10;;;12.65;;
19414;SDS011;9843;48.882;12.592;2023-03-01T13:17:03;18.42;;;15.88;;
19414;SDS011;9843;48.882;12.592;2023-03-01T13:19:30;24.23;;;16.63;;
19414;SDS011;9843;48.882;12.592;2023-03-01T13:22:00;17.65;;;14.23;;
19414;SDS011;9843;48.882;12.592;2023-03-01T13:24:47;20.90;;;15.63;;
19414;SDS011;9843;48.882;12.592;2023-03-01T13:27:23;15.80;;;11.98;;
19414;SDS011;9843;48.882;12.592;2023-03-01T13:29:55;18.65;;;12.23;;
19414;SDS011;9843;48.882;12.592;2023-03-01T13:32:26;17.85;;;14.15;;
19414;SDS011;9843;48.882;12.592;2023-03-01T13:34:55;16.88;;;11.43;;
19414;SDS011;9843;48.882;12.592;2023-03-01T13:37:26;20.55;;;14.65;;
19414;SDS011;9843;48.882;12.592;2023-03-01T13:39:55;18.10;;;13.25;;
19414;SDS011;9843;48.882;12.592;2023-03-01T13:42:31;17.83;;;14.25;;
19414;SDS011;9843;48.882;12.592;2023-03-01T13:44:58;19.48;;;13.40;;
19414;SDS011;9843;48.882;12.592;2023-03-01T13:47:27;14.90;;;12.60;;
19414;SDS011;9843;48.882;12.592;2023-03-01T13:49:56;21.88;;;15.80;;
19414;SDS011;9843;48.882;12.592;2023-03-01T13:52:33;18.63;;;14.55;;
19414;SDS011;9843;48.882;12.592;2023-03-01T13:55:02;19.40;;;15.23;;
19414;SDS011;9843;48.882;12.592;2023-03-01T13:57:32;20.90;;;15.00;;
19414;SDS011;9843;48.882;12.592;2023-03-01T14:00:00;22.20;;;16.17;;
19414;SDS011;9843;48.882;12.592;2023-03-01T14:02:31;22.70;;;15.40;;
19414;SDS011;9843;48.882;12.592;2023-03-01T14:05:00;20.90;;;15.30;;
19414;SDS011;9843;48.882;12.592;2023-03-01T14:07:28;24.63;;;17.00;;
19414;SDS011;9843;48.882;12.592;2023-03-01T14:09:56;23.13;;;15.57;;
19414;SDS011;9843;48.882;12.592;2023-03-01T14:12:35;16.13;;;13.40;;
19414;SDS011;9843;48.882;12.592;2023-03-01T14:15:06;20.52;;;14.50;;
19414;SDS011;9843;48.882;12.592;2023-03-01T14:20:20;20.57;;;15.00;;
19414;SDS011;9843;48.882;12.592;2023-03-01T14:22:47;20.63;;;15.23;;
19414;SDS011;9843;48.882;12.592;2023-03-01T14:25:20;21.00;;;16.20;;
19414;SDS011;9843;48.882;12.592;2023-03-01T14:27:50;23.03;;;14.97;;
19414;SDS011;9843;48.882;12.592;2023-03-01T14:30:19;23.37;;;17.57;;
19414;SDS011;9843;48.882;12.592;2023-03-01T14:32:52;18.83;;;13.83;;
19414;SDS011;9843;48.882;12.592;2023-03-01T14:35:22;16.13;;;14.43;;
19414;SDS011;9843;48.882;12.592;2023-03-01T14:37:49;20.80;;;15.47;;
19414;SDS011;9843;48.882;12.592;2023-03-01T14:40:20;17.83;;;15.23;;
19414;SDS011;9843;48.882;12.592;2023-03-01T14:42:49;18.37;;;14.63;;
19414;SDS011;9843;48.882;12.592;2023-03-01T14:45:16;20.23;;;14.33;;
19414;SDS011;9843;48.882;12.592;2023-03-01T14:47:44;20.83;;;16.17;;
19414;SDS011;9843;48.882;12.592;2023-03-01T14:50:15;19.00;;;15.33;;